sensor_id;sensor_type;location;lat;lon;timestamp;P1;durP1;ratioP1;P2;durP2;ratioP2
60722;SDS011;46574;52.818;6.516;2023-04-24T00:00:55;1.08;;;1.08;;
60722;SDS011;46574;52.818;6.516;2023-04-24T00:03:26;1.38;;;1.38;;
60722;SDS011;46574;52.818;6.516;2023-04-24T00:05:53;1.30;;;1.30;;
60722;SDS011;46574;52.818;6.516;2023-04-24T00:08:19;1.27;;;1.17;;
60722;SDS011;46574;52.818;6.516;2023-04-24T00:10:46;1.63;;;1.52;;
60722;SDS011;46574;52.818;6.516;2023-04-24T00:13:11;1.50;;;1.40;;
60722;SDS011;46574;52.818;6.516;2023-04-24T00:15:37;1.25;;;1.15;;
60722;SDS011;46574;52.818;6.516;2023-04-24T00:18:03;1.80;;;1.70;;
60722;SDS011;46574;52.818;6.516;2023-04-24T00:20:29;1.60;;;1.50;;
60722;SDS011;46574;52.818;6.516;2023-04-24T00:22:55;1.90;;;1.80;;
60722;SDS011;46574;52.818;6.516;2023-04-24T00:25:20;2.05;;;1.95;;
60722;SDS011;46574;52.818;6.516;2023-04-24T00:27:46;2.00;;;1.90;;
60722;SDS011;46574;52.818;6.516;2023-04-24T00:30:12;2.00;;;1.90;;
60722;SDS011;46574;52.818;6.516;2023-04-24T00:32:38;1.80;;;1.70;;
60722;SDS011;46574;52.818;6.516;2023-04-24T00:35:04;2.88;;;2.67;;
60722;SDS011;46574;52.818;6.516;2023-04-24T00:37:30;2.63;;;2.42;;
60722;SDS011;46574;52.818;6.516;2023-04-24T00:39:56;2.65;;;2.47;;
60722;SDS011;46574;52.818;6.516;2023-04-24T00:42:22;2.45;;;2.35;;
60722;SDS011;46574;52.818;6.516;2023-04-24T00:44:48;2.63;;;2.53;;
60722;SDS011;46574;52.818;6.516;2023-04-24T00:47:14;2.70;;;2.50;;
60722;SDS011;46574;52.818;6.516;2023-04-24T00:49:40;2.83;;;2.63;;
60722;SDS011;46574;52.818;6.516;2023-04-24T00:52:06;3.42;;;3.22;;
60722;SDS011;46574;52.818;6.516;2023-04-24T00:54:34;3.20;;;2.95;;
60722;SDS011;46574;52.818;6.516;2023-04-24T00:57:00;3.30;;;3.10;;
60722;SDS011;46574;52.818;6.516;2023-04-24T00:59:27;3.10;;;2.90;;
60722;SDS011;46574;52.818;6.516;2023-04-24T01:01:53;3.38;;;3.17;;
60722;SDS011;46574;52.818;6.516;2023-04-24T01:04:19;4.22;;;3.92;;
60722;SDS011;46574;52.818;6.516;2023-04-24T01:06:45;4.20;;;3.90;;
60722;SDS011;46574;52.818;6.516;2023-04-24T01:09:11;4.80;;;4.40;;
60722;SDS011;46574;52.818;6.516;2023-04-24T01:11:39;5.25;;;4.82;;
60722;SDS011;46574;52.818;6.516;2023-04-24T01:14:08;5.47;;;5.05;;
60722;SDS011;46574;52.818;6.516;2023-04-24T01:16:34;5.95;;;5.35;;
60722;SDS011;46574;52.818;6.516;2023-04-24T01:18:59;5.88;;;5.00;;
60722;SDS011;46574;52.818;6.516;2023-04-24T01:21:26;5.30;;;4.85;;
60722;SDS011;46574;52.818;6.516;2023-04-24T01:23:55;5.40;;;4.93;;
60722;SDS011;46574;52.818;6.516;2023-04-24T01:26:22;5.40;;;4.90;;
60722;SDS011;46574;52.818;6.516;2023-04-24T01:28:48;5.35;;;4.85;;
60722;SDS011;46574;52.818;6.516;2023-04-24T01:31:14;5.05;;;4.65;;
60722;SDS011;46574;52.818;6.516;2023-04-24T01:33:41;4.53;;;4.13;;
60722;SDS011;46574;52.818;6.516;2023-04-24T01:36:08;4.68;;;4.28;;
60722;SDS011;46574;52.818;6.516;2023-04-24T01:38:35;5.68;;;5.28;;
60722;SDS011;46574;52.818;6.516;2023-04-24T01:41:01;5.65;;;5.25;;
60722;SDS011;46574;52.818;6.516;2023-04-24T01:43:27;5.32;;;4.85;;
60722;SDS011;46574;52.818;6.516;2023-04-24T01:45:53;6.07;;;5.60;;
60722;SDS011;46574;52.818;6.516;2023-04-24T01:48:19;6.15;;;5.75;;
60722;SDS011;46574;52.818;6.516;2023-04-24T01:50:45;6.35;;;5.95;;
60722;SDS011;46574;52.818;6.516;2023-04-24T01:53:11;5.70;;;5.30;;
60722;SDS011;46574;52.818;6.516;2023-04-24T01:55:37;6.15;;;5.65;;
60722;SDS011;46574;52.818;6.516;2023-04-24T01:58:03;5.28;;;4.97;;
60722;SDS011;46574;52.818;6.516;2023-04-24T02:00:28;6.13;;;5.72;;
60722;SDS011;46574;52.818;6.516;2023-04-24T02:02:54;5.35;;;5.05;;
60722;SDS011;46574;52.818;6.516;2023-04-24T02:05:20;4.90;;;4.57;;
60722;SDS011;46574;52.818;6.516;2023-04-24T02:07:45;5.78;;;5.38;;
60722;SDS011;46574;52.818;6.516;2023-04-24T02:10:11;5.55;;;5.15;;
60722;SDS011;46574;52.818;6.516;2023-04-24T02:12:37;5.10;;;4.70;;
60722;SDS011;46574;52.818;6.516;2023-04-24T02:15:03;5.22;;;4.82;;
60722;SDS011;46574;52.818;6.516;2023-04-24T02:17:29;5.65;;;5.25;;
60722;SDS011;46574;52.818;6.516;2023-04-24T02:19:56;5.25;;;4.93;;
60722;SDS011;46574;52.818;6.516;2023-04-24T02:22:22;5.03;;;4.72;;
60722;SDS011;46574;52.818;6.516;2023-04-24T02:24:47;5.65;;;5.25;;
60722;SDS011;46574;52.818;6.516;2023-04-24T02:27:13;5.90;;;5.50;;
60722;SDS011;46574;52.818;6.516;2023-04-24T02:29:39;5.78;;;5.38;;
60722;SDS011;46574;52.818;6.516;2023-04-24T02:32:05;5.30;;;4.90;;
60722;SDS011;46574;52.818;6.516;2023-04-24T02:34:31;4.53;;;4.22;;
60722;SDS011;46574;52.818;6.516;2023-04-24T02:36:56;4.82;;;4.50;;
60722;SDS011;46574;52.818;6.516;2023-04-24T02:39:22;4.90;;;4.60;;
60722;SDS011;46574;52.818;6.516;2023-04-24T02:41:48;4.22;;;3.92;;
60722;SDS011;46574;52.818;6.516;2023-04-24T02:44:13;4.80;;;4.50;;
60722;SDS011;46574;52.818;6.516;2023-04-24T02:46:39;5.10;;;4.70;;
60722;SDS011;46574;52.818;6.516;2023-04-24T02:49:07;4.68;;;4.28;;
60722;SDS011;46574;52.818;6.516;2023-04-24T02:51:32;4.57;;;4.18;;
60722;SDS011;46574;52.818;6.516;2023-04-24T02:53:58;5.43;;;5.00;;
60722;SDS011;46574;52.818;6.516;2023-04-24T02:56:24;5.13;;;4.82;;
60722;SDS011;46574;52.818;6.516;2023-04-24T02:58:49;4.63;;;4.32;;
60722;SDS011;46574;52.818;6.516;2023-04-24T03:01:15;6.07;;;5.57;;
60722;SDS011;46574;52.818;6.516;2023-04-24T03:03:41;5.72;;;5.32;;
60722;SDS011;46574;52.818;6.516;2023-04-24T03:06:07;5.95;;;5.47;;
60722;SDS011;46574;52.818;6.516;2023-04-24T03:08:33;6.30;;;5.70;;
60722;SDS011;46574;52.818;6.516;2023-04-24T03:10:59;6.75;;;6.10;;
60722;SDS011;46574;52.818;6.516;2023-04-24T03:13:24;7.07;;;6.47;;
60722;SDS011;46574;52.818;6.516;2023-04-24T03:15:50;6.28;;;5.78;;
60722;SDS011;46574;52.818;6.516;2023-04-24T03:18:16;6.95;;;6.40;;
60722;SDS011;46574;52.818;6.516;2023-04-24T03:20:42;6.30;;;5.85;;
60722;SDS011;46574;52.818;6.516;2023-04-24T03:23:07;7.45;;;6.80;;
60722;SDS011;46574;52.818;6.516;2023-04-24T03:25:33;6.32;;;5.82;;
60722;SDS011;46574;52.818;6.516;2023-04-24T03:27:58;5.93;;;5.53;;
60722;SDS011;46574;52.818;6.516;2023-04-24T03:30:24;6.47;;;5.97;;
60722;SDS011;46574;52.818;6.516;2023-04-24T03:32:50;6.47;;;5.97;;
60722;SDS011;46574;52.818;6.516;2023-04-24T03:35:15;6.57;;;5.75;;
60722;SDS011;46574;52.818;6.516;2023-04-24T03:37:41;5.53;;;5.10;;
60722;SDS011;46574;52.818;6.516;2023-04-24T03:40:07;5.72;;;5.22;;
60722;SDS011;46574;52.818;6.516;2023-04-24T03:42:33;4.80;;;4.40;;
60722;SDS011;46574;52.818;6.516;2023-04-24T03:44:58;4.40;;;4.00;;
60722;SDS011;46574;52.818;6.516;2023-04-24T03:47:24;3.92;;;3.65;;
60722;SDS011;46574;52.818;6.516;2023-04-24T03:49:50;3.60;;;3.30;;
60722;SDS011;46574;52.818;6.516;2023-04-24T03:52:16;3.15;;;2.95;;
60722;SDS011;46574;52.818;6.516;2023-04-24T03:54:41;3.22;;;3.03;;
60722;SDS011;46574;52.818;6.516;2023-04-24T03:57:07;2.70;;;2.55;;
60722;SDS011;46574;52.818;6.516;2023-04-24T03:59:32;2.50;;;2.38;;
60722;SDS011;46574;52.818;6.516;2023-04-24T04:01:58;2.58;;;2.35;;
60722;SDS011;46574;52.818;6.516;2023-04-24T04:04:24;2.08;;;1.90;;
60722;SDS011;46574;52.818;6.516;2023-04-24T04:06:49;2.05;;;1.95;;
60722;SDS011;46574;52.818;6.516;2023-04-24T04:09:16;2.38;;;1.40;;
60722;SDS011;46574;52.818;6.516;2023-04-24T04:11:41;1.67;;;1.58;;
60722;SDS011;46574;52.818;6.516;2023-04-24T04:14:07;1.50;;;1.40;;
60722;SDS011;46574;52.818;6.516;2023-04-24T04:16:33;1.10;;;1.10;;
60722;SDS011;46574;52.818;6.516;2023-04-24T04:18:58;0.90;;;0.90;;
60722;SDS011;46574;52.818;6.516;2023-04-24T04:21:24;0.80;;;0.80;;
60722;SDS011;46574;52.818;6.516;2023-04-24T04:23:49;0.77;;;0.77;;
60722;SDS011;46574;52.818;6.516;2023-04-24T04:26:15;0.80;;;0.80;;
60722;SDS011;46574;52.818;6.516;2023-04-24T04:28:41;1.20;;;1.10;;
60722;SDS011;46574;52.818;6.516;2023-04-24T04:31:06;1.30;;;1.25;;
60722;SDS011;46574;52.818;6.516;2023-04-24T04:33:33;1.63;;;1.45;;
60722;SDS011;46574;52.818;6.516;2023-04-24T04:35:59;2.38;;;2.13;;
60722;SDS011;46574;52.818;6.516;2023-04-24T04:38:25;3.13;;;2.83;;
60722;SDS011;46574;52.818;6.516;2023-04-24T04:40:55;3.20;;;2.90;;
60722;SDS011;46574;52.818;6.516;2023-04-24T04:43:22;3.00;;;2.80;;
60722;SDS011;46574;52.818;6.516;2023-04-24T04:45:51;3.10;;;2.90;;
60722;SDS011;46574;52.818;6.516;2023-04-24T04:48:17;3.10;;;2.90;;
60722;SDS011;46574;52.818;6.516;2023-04-24T04:50:43;3.58;;;3.38;;
60722;SDS011;46574;52.818;6.516;2023-04-24T04:53:10;3.45;;;3.25;;
60722;SDS011;46574;52.818;6.516;2023-04-24T04:55:36;2.85;;;2.65;;
60722;SDS011;46574;52.818;6.516;2023-04-24T04:58:02;2.90;;;2.70;;
60722;SDS011;46574;52.818;6.516;2023-04-24T05:00:28;2.63;;;2.42;;
60722;SDS011;46574;52.818;6.516;2023-04-24T05:02:59;3.00;;;2.70;;
60722;SDS011;46574;52.818;6.516;2023-04-24T05:05:25;3.22;;;2.97;;
60722;SDS011;46574;52.818;6.516;2023-04-24T05:07:50;3.25;;;3.05;;
60722;SDS011;46574;52.818;6.516;2023-04-24T05:10:16;3.30;;;3.10;;
60722;SDS011;46574;52.818;6.516;2023-04-24T05:12:42;2.72;;;2.53;;
60722;SDS011;46574;52.818;6.516;2023-04-24T05:15:08;2.60;;;2.40;;
60722;SDS011;46574;52.818;6.516;2023-04-24T05:17:34;3.13;;;2.92;;
60722;SDS011;46574;52.818;6.516;2023-04-24T05:20:00;2.90;;;2.70;;
60722;SDS011;46574;52.818;6.516;2023-04-24T05:22:26;2.75;;;2.55;;
60722;SDS011;46574;52.818;6.516;2023-04-24T05:24:51;3.83;;;3.03;;
60722;SDS011;46574;52.818;6.516;2023-04-24T05:27:18;3.28;;;3.00;;
60722;SDS011;46574;52.818;6.516;2023-04-24T05:29:44;2.92;;;2.72;;
60722;SDS011;46574;52.818;6.516;2023-04-24T05:32:09;3.35;;;3.05;;
60722;SDS011;46574;52.818;6.516;2023-04-24T05:34:35;2.80;;;2.45;;
60722;SDS011;46574;52.818;6.516;2023-04-24T05:37:01;2.22;;;2.13;;
60722;SDS011;46574;52.818;6.516;2023-04-24T05:39:28;3.13;;;2.92;;
60722;SDS011;46574;52.818;6.516;2023-04-24T05:41:53;2.20;;;2.10;;
60722;SDS011;46574;52.818;6.516;2023-04-24T05:44:20;2.78;;;2.58;;
60722;SDS011;46574;52.818;6.516;2023-04-24T05:46:45;2.97;;;2.72;;
60722;SDS011;46574;52.818;6.516;2023-04-24T05:49:11;2.80;;;2.60;;
60722;SDS011;46574;52.818;6.516;2023-04-24T05:51:36;2.80;;;2.60;;
60722;SDS011;46574;52.818;6.516;2023-04-24T05:54:04;2.72;;;2.53;;
60722;SDS011;46574;52.818;6.516;2023-04-24T05:56:29;2.60;;;2.40;;
60722;SDS011;46574;52.818;6.516;2023-04-24T05:58:55;2.30;;;2.20;;
60722;SDS011;46574;52.818;6.516;2023-04-24T06:01:21;2.90;;;2.55;;
60722;SDS011;46574;52.818;6.516;2023-04-24T06:03:47;2.40;;;2.20;;
60722;SDS011;46574;52.818;6.516;2023-04-24T06:06:13;2.47;;;2.33;;
60722;SDS011;46574;52.818;6.516;2023-04-24T06:08:39;2.50;;;2.30;;
60722;SDS011;46574;52.818;6.516;2023-04-24T06:11:04;2.60;;;2.35;;
60722;SDS011;46574;52.818;6.516;2023-04-24T06:13:30;2.58;;;2.20;;
60722;SDS011;46574;52.818;6.516;2023-04-24T06:15:55;2.80;;;2.35;;
60722;SDS011;46574;52.818;6.516;2023-04-24T06:18:21;2.58;;;2.38;;
60722;SDS011;46574;52.818;6.516;2023-04-24T06:20:47;2.50;;;2.30;;
60722;SDS011;46574;52.818;6.516;2023-04-24T06:23:12;3.10;;;2.58;;
60722;SDS011;46574;52.818;6.516;2023-04-24T06:25:38;4.38;;;2.95;;
60722;SDS011;46574;52.818;6.516;2023-04-24T06:28:04;3.78;;;2.88;;
60722;SDS011;46574;52.818;6.516;2023-04-24T06:30:30;3.28;;;2.97;;
60722;SDS011;46574;52.818;6.516;2023-04-24T06:32:56;3.58;;;2.92;;
60722;SDS011;46574;52.818;6.516;2023-04-24T06:35:22;3.50;;;3.20;;
60722;SDS011;46574;52.818;6.516;2023-04-24T06:37:48;3.65;;;3.25;;
60722;SDS011;46574;52.818;6.516;2023-04-24T06:40:14;3.90;;;3.47;;
60722;SDS011;46574;52.818;6.516;2023-04-24T06:42:43;4.22;;;3.70;;
60722;SDS011;46574;52.818;6.516;2023-04-24T06:45:08;4.22;;;3.83;;
60722;SDS011;46574;52.818;6.516;2023-04-24T06:47:34;4.72;;;3.83;;
60722;SDS011;46574;52.818;6.516;2023-04-24T06:50:00;6.43;;;4.25;;
60722;SDS011;46574;52.818;6.516;2023-04-24T06:52:26;5.13;;;4.25;;
60722;SDS011;46574;52.818;6.516;2023-04-24T06:54:51;7.00;;;4.72;;
60722;SDS011;46574;52.818;6.516;2023-04-24T06:57:17;6.55;;;4.93;;
60722;SDS011;46574;52.818;6.516;2023-04-24T06:59:43;6.07;;;4.80;;
60722;SDS011;46574;52.818;6.516;2023-04-24T07:02:09;6.43;;;5.78;;
60722;SDS011;46574;52.818;6.516;2023-04-24T07:04:34;6.22;;;4.97;;
60722;SDS011;46574;52.818;6.516;2023-04-24T07:07:00;6.68;;;5.07;;
60722;SDS011;46574;52.818;6.516;2023-04-24T07:09:26;6.60;;;5.30;;
60722;SDS011;46574;52.818;6.516;2023-04-24T07:11:52;7.40;;;5.65;;
60722;SDS011;46574;52.818;6.516;2023-04-24T07:14:18;7.05;;;5.57;;
60722;SDS011;46574;52.818;6.516;2023-04-24T07:16:44;7.35;;;5.57;;
60722;SDS011;46574;52.818;6.516;2023-04-24T07:19:10;8.10;;;5.78;;
60722;SDS011;46574;52.818;6.516;2023-04-24T07:21:36;6.68;;;5.30;;
60722;SDS011;46574;52.818;6.516;2023-04-24T07:24:02;6.10;;;5.20;;
60722;SDS011;46574;52.818;6.516;2023-04-24T07:26:28;8.25;;;5.50;;
60722;SDS011;46574;52.818;6.516;2023-04-24T07:28:54;7.88;;;4.82;;
60722;SDS011;46574;52.818;6.516;2023-04-24T07:31:20;5.40;;;4.40;;
60722;SDS011;46574;52.818;6.516;2023-04-24T07:33:46;7.93;;;5.13;;
60722;SDS011;46574;52.818;6.516;2023-04-24T07:36:12;5.32;;;4.68;;
60722;SDS011;46574;52.818;6.516;2023-04-24T07:38:44;7.45;;;4.43;;
60722;SDS011;46574;52.818;6.516;2023-04-24T07:41:10;6.00;;;3.97;;
60722;SDS011;46574;52.818;6.516;2023-04-24T07:43:35;5.43;;;4.25;;
60722;SDS011;46574;52.818;6.516;2023-04-24T07:46:01;6.50;;;4.05;;
60722;SDS011;46574;52.818;6.516;2023-04-24T07:48:27;6.32;;;3.85;;
60722;SDS011;46574;52.818;6.516;2023-04-24T07:50:53;6.13;;;4.15;;
60722;SDS011;46574;52.818;6.516;2023-04-24T07:53:19;5.95;;;4.30;;
60722;SDS011;46574;52.818;6.516;2023-04-24T07:55:44;4.20;;;3.80;;
60722;SDS011;46574;52.818;6.516;2023-04-24T07:58:10;4.40;;;3.42;;
60722;SDS011;46574;52.818;6.516;2023-04-24T08:00:36;5.95;;;3.42;;
60722;SDS011;46574;52.818;6.516;2023-04-24T08:03:02;4.78;;;3.30;;
60722;SDS011;46574;52.818;6.516;2023-04-24T08:05:27;4.18;;;3.25;;
60722;SDS011;46574;52.818;6.516;2023-04-24T08:07:53;4.13;;;3.28;;
60722;SDS011;46574;52.818;6.516;2023-04-24T08:10:23;4.13;;;3.30;;
60722;SDS011;46574;52.818;6.516;2023-04-24T08:15:14;4.75;;;3.40;;
60722;SDS011;46574;52.818;6.516;2023-04-24T08:17:40;4.28;;;3.53;;
60722;SDS011;46574;52.818;6.516;2023-04-24T08:20:06;4.80;;;3.88;;
60722;SDS011;46574;52.818;6.516;2023-04-24T08:22:38;5.80;;;4.13;;
60722;SDS011;46574;52.818;6.516;2023-04-24T08:25:08;9.10;;;5.20;;
60722;SDS011;46574;52.818;6.516;2023-04-24T08:27:36;9.95;;;6.95;;
60722;SDS011;46574;52.818;6.516;2023-04-24T08:30:02;10.00;;;7.60;;
60722;SDS011;46574;52.818;6.516;2023-04-24T08:32:29;11.93;;;8.63;;
60722;SDS011;46574;52.818;6.516;2023-04-24T08:34:55;15.07;;;8.95;;
60722;SDS011;46574;52.818;6.516;2023-04-24T08:37:21;14.52;;;10.02;;
60722;SDS011;46574;52.818;6.516;2023-04-24T08:39:48;13.55;;;9.98;;
60722;SDS011;46574;52.818;6.516;2023-04-24T08:42:14;16.67;;;10.73;;
60722;SDS011;46574;52.818;6.516;2023-04-24T08:44:42;16.75;;;11.07;;
60722;SDS011;46574;52.818;6.516;2023-04-24T08:47:09;15.52;;;10.65;;
60722;SDS011;46574;52.818;6.516;2023-04-24T08:49:36;18.92;;;11.23;;
60722;SDS011;46574;52.818;6.516;2023-04-24T08:52:02;15.40;;;10.73;;
60722;SDS011;46574;52.818;6.516;2023-04-24T08:54:29;19.00;;;11.55;;
60722;SDS011;46574;52.818;6.516;2023-04-24T08:56:59;19.80;;;12.95;;
60722;SDS011;46574;52.818;6.516;2023-04-24T08:59:31;21.38;;;14.13;;
60722;SDS011;46574;52.818;6.516;2023-04-24T09:01:58;22.58;;;14.88;;
60722;SDS011;46574;52.818;6.516;2023-04-24T09:04:25;23.17;;;16.55;;
60722;SDS011;46574;52.818;6.516;2023-04-24T09:06:52;23.50;;;16.48;;
60722;SDS011;46574;52.818;6.516;2023-04-24T09:09:22;25.95;;;16.40;;
60722;SDS011;46574;52.818;6.516;2023-04-24T09:11:49;22.00;;;15.02;;
60722;SDS011;46574;52.818;6.516;2023-04-24T09:14:15;22.50;;;16.27;;
60722;SDS011;46574;52.818;6.516;2023-04-24T09:16:42;20.63;;;15.25;;
60722;SDS011;46574;52.818;6.516;2023-04-24T09:19:08;22.08;;;15.48;;
60722;SDS011;46574;52.818;6.516;2023-04-24T09:21:34;23.70;;;15.55;;
60722;SDS011;46574;52.818;6.516;2023-04-24T09:24:05;22.98;;;15.88;;
60722;SDS011;46574;52.818;6.516;2023-04-24T09:26:34;26.67;;;16.85;;
60722;SDS011;46574;52.818;6.516;2023-04-24T09:29:01;22.48;;;17.10;;
60722;SDS011;46574;52.818;6.516;2023-04-24T09:31:28;21.05;;;15.65;;
60722;SDS011;46574;52.818;6.516;2023-04-24T09:33:55;18.55;;;15.18;;
60722;SDS011;46574;52.818;6.516;2023-04-24T09:36:30;16.40;;;13.05;;
60722;SDS011;46574;52.818;6.516;2023-04-24T09:38:58;19.90;;;13.77;;
60722;SDS011;46574;52.818;6.516;2023-04-24T09:41:29;17.40;;;12.32;;
60722;SDS011;46574;52.818;6.516;2023-04-24T09:43:55;18.42;;;13.50;;
60722;SDS011;46574;52.818;6.516;2023-04-24T09:46:28;17.83;;;12.88;;
60722;SDS011;46574;52.818;6.516;2023-04-24T09:48:56;18.02;;;12.32;;
60722;SDS011;46574;52.818;6.516;2023-04-24T09:51:35;17.00;;;12.02;;
60722;SDS011;46574;52.818;6.516;2023-04-24T09:54:03;16.27;;;11.10;;
60722;SDS011;46574;52.818;6.516;2023-04-24T09:56:32;12.77;;;11.32;;
60722;SDS011;46574;52.818;6.516;2023-04-24T09:59:05;13.02;;;10.10;;
60722;SDS011;46574;52.818;6.516;2023-04-24T10:01:32;14.88;;;9.77;;
60722;SDS011;46574;52.818;6.516;2023-04-24T10:03:58;13.50;;;9.85;;
60722;SDS011;46574;52.818;6.516;2023-04-24T10:06:33;15.02;;;10.18;;
60722;SDS011;46574;52.818;6.516;2023-04-24T10:09:00;15.32;;;10.02;;
60722;SDS011;46574;52.818;6.516;2023-04-24T10:11:27;14.05;;;9.68;;
60722;SDS011;46574;52.818;6.516;2023-04-24T10:13:53;13.60;;;9.00;;
60722;SDS011;46574;52.818;6.516;2023-04-24T10:16:19;10.95;;;8.10;;
60722;SDS011;46574;52.818;6.516;2023-04-24T10:18:47;10.57;;;8.90;;
60722;SDS011;46574;52.818;6.516;2023-04-24T10:21:14;12.93;;;7.72;;
60722;SDS011;46574;52.818;6.516;2023-04-24T10:23:41;13.88;;;8.20;;
60722;SDS011;46574;52.818;6.516;2023-04-24T10:26:08;11.23;;;7.15;;
60722;SDS011;46574;52.818;6.516;2023-04-24T10:28:35;11.25;;;6.75;;
60722;SDS011;46574;52.818;6.516;2023-04-24T10:31:01;11.18;;;7.32;;
60722;SDS011;46574;52.818;6.516;2023-04-24T10:33:27;12.38;;;6.63;;
60722;SDS011;46574;52.818;6.516;2023-04-24T10:35:55;13.38;;;6.28;;
60722;SDS011;46574;52.818;6.516;2023-04-24T10:38:24;11.98;;;6.07;;
60722;SDS011;46574;52.818;6.516;2023-04-24T10:40:51;10.93;;;5.93;;
60722;SDS011;46574;52.818;6.516;2023-04-24T10:43:31;10.55;;;6.22;;
60722;SDS011;46574;52.818;6.516;2023-04-24T10:46:02;9.02;;;5.60;;
60722;SDS011;46574;52.818;6.516;2023-04-24T10:48:29;11.60;;;5.20;;
60722;SDS011;46574;52.818;6.516;2023-04-24T10:50:55;10.38;;;4.85;;
60722;SDS011;46574;52.818;6.516;2023-04-24T10:53:24;9.23;;;4.32;;
60722;SDS011;46574;52.818;6.516;2023-04-24T10:55:57;10.57;;;4.55;;
60722;SDS011;46574;52.818;6.516;2023-04-24T10:58:23;11.25;;;4.50;;
60722;SDS011;46574;52.818;6.516;2023-04-24T11:01:00;7.35;;;3.85;;
60722;SDS011;46574;52.818;6.516;2023-04-24T11:03:26;9.02;;;4.75;;
60722;SDS011;46574;52.818;6.516;2023-04-24T11:06:03;9.82;;;4.35;;
60722;SDS011;46574;52.818;6.516;2023-04-24T11:16:25;8.70;;;3.03;;
60722;SDS011;46574;52.818;6.516;2023-04-24T11:19:08;8.93;;;3.17;;
60722;SDS011;46574;52.818;6.516;2023-04-24T11:27:05;10.85;;;3.13;;
60722;SDS011;46574;52.818;6.516;2023-04-24T11:35:01;8.55;;;3.30;;
60722;SDS011;46574;52.818;6.516;2023-04-24T11:37:49;6.35;;;2.70;;
60722;SDS011;46574;52.818;6.516;2023-04-24T11:40:17;7.68;;;3.08;;
60722;SDS011;46574;52.818;6.516;2023-04-24T11:42:46;8.02;;;2.88;;
60722;SDS011;46574;52.818;6.516;2023-04-24T11:45:33;7.57;;;2.70;;
60722;SDS011;46574;52.818;6.516;2023-04-24T11:47:58;6.63;;;2.70;;
60722;SDS011;46574;52.818;6.516;2023-04-24T11:50:24;7.72;;;2.72;;
60722;SDS011;46574;52.818;6.516;2023-04-24T11:52:52;7.25;;;2.78;;
60722;SDS011;46574;52.818;6.516;2023-04-24T11:57:48;5.30;;;2.15;;
60722;SDS011;46574;52.818;6.516;2023-04-24T12:00:19;7.18;;;2.88;;
60722;SDS011;46574;52.818;6.516;2023-04-24T12:02:45;5.88;;;2.70;;
60722;SDS011;46574;52.818;6.516;2023-04-24T12:05:25;4.47;;;2.30;;
60722;SDS011;46574;52.818;6.516;2023-04-24T12:07:52;5.25;;;2.47;;
60722;SDS011;46574;52.818;6.516;2023-04-24T12:10:22;2.95;;;2.13;;
60722;SDS011;46574;52.818;6.516;2023-04-24T12:12:49;4.43;;;2.53;;
60722;SDS011;46574;52.818;6.516;2023-04-24T12:15:16;6.63;;;2.50;;
60722;SDS011;46574;52.818;6.516;2023-04-24T12:17:44;6.15;;;2.40;;
60722;SDS011;46574;52.818;6.516;2023-04-24T12:20:10;7.25;;;2.72;;
60722;SDS011;46574;52.818;6.516;2023-04-24T12:25:29;5.63;;;2.35;;
60722;SDS011;46574;52.818;6.516;2023-04-24T12:30:28;4.72;;;2.25;;
60722;SDS011;46574;52.818;6.516;2023-04-24T12:32:56;3.17;;;1.85;;
60722;SDS011;46574;52.818;6.516;2023-04-24T12:35:23;5.43;;;1.80;;
60722;SDS011;46574;52.818;6.516;2023-04-24T12:37:51;1.90;;;1.27;;
60722;SDS011;46574;52.818;6.516;2023-04-24T12:40:17;2.70;;;1.30;;
60722;SDS011;46574;52.818;6.516;2023-04-24T12:42:49;2.97;;;1.30;;
60722;SDS011;46574;52.818;6.516;2023-04-24T12:45:17;3.40;;;1.20;;
60722;SDS011;46574;52.818;6.516;2023-04-24T12:47:44;3.47;;;1.48;;
60722;SDS011;46574;52.818;6.516;2023-04-24T12:50:11;1.58;;;1.17;;
60722;SDS011;46574;52.818;6.516;2023-04-24T12:52:38;4.50;;;1.50;;
60722;SDS011;46574;52.818;6.516;2023-04-24T12:55:04;3.78;;;1.33;;
60722;SDS011;46574;52.818;6.516;2023-04-24T12:57:33;3.50;;;1.30;;
60722;SDS011;46574;52.818;6.516;2023-04-24T12:59:59;1.95;;;1.25;;
60722;SDS011;46574;52.818;6.516;2023-04-24T13:02:26;6.13;;;1.48;;
60722;SDS011;46574;52.818;6.516;2023-04-24T13:04:54;2.58;;;1.27;;
60722;SDS011;46574;52.818;6.516;2023-04-24T13:07:20;4.38;;;1.50;;
60722;SDS011;46574;52.818;6.516;2023-04-24T13:09:47;3.28;;;1.40;;
60722;SDS011;46574;52.818;6.516;2023-04-24T13:12:14;4.60;;;1.60;;
60722;SDS011;46574;52.818;6.516;2023-04-24T13:14:40;6.05;;;1.88;;
60722;SDS011;46574;52.818;6.516;2023-04-24T13:17:06;4.78;;;1.67;;
60722;SDS011;46574;52.818;6.516;2023-04-24T13:19:39;5.45;;;1.75;;
60722;SDS011;46574;52.818;6.516;2023-04-24T13:22:06;3.10;;;1.35;;
60722;SDS011;46574;52.818;6.516;2023-04-24T13:24:35;4.07;;;1.48;;
60722;SDS011;46574;52.818;6.516;2023-04-24T13:27:01;3.58;;;1.48;;
60722;SDS011;46574;52.818;6.516;2023-04-24T13:29:27;4.28;;;1.65;;
60722;SDS011;46574;52.818;6.516;2023-04-24T13:31:53;4.63;;;1.20;;
60722;SDS011;46574;52.818;6.516;2023-04-24T13:34:20;4.57;;;1.40;;
60722;SDS011;46574;52.818;6.516;2023-04-24T13:36:46;3.28;;;1.30;;
60722;SDS011;46574;52.818;6.516;2023-04-24T13:39:12;3.92;;;1.30;;
60722;SDS011;46574;52.818;6.516;2023-04-24T13:41:38;3.08;;;1.10;;
60722;SDS011;46574;52.818;6.516;2023-04-24T13:44:04;2.50;;;1.15;;
60722;SDS011;46574;52.818;6.516;2023-04-24T13:46:31;5.13;;;1.55;;
60722;SDS011;46574;52.818;6.516;2023-04-24T13:48:57;3.65;;;1.13;;
60722;SDS011;46574;52.818;6.516;2023-04-24T13:51:25;4.75;;;1.40;;
60722;SDS011;46574;52.818;6.516;2023-04-24T13:53:52;3.95;;;1.52;;
60722;SDS011;46574;52.818;6.516;2023-04-24T13:56:18;3.38;;;1.42;;
60722;SDS011;46574;52.818;6.516;2023-04-24T13:58:44;2.63;;;1.30;;
60722;SDS011;46574;52.818;6.516;2023-04-24T14:01:09;2.97;;;1.50;;
60722;SDS011;46574;52.818;6.516;2023-04-24T14:03:36;4.85;;;1.50;;
60722;SDS011;46574;52.818;6.516;2023-04-24T14:06:02;3.00;;;1.55;;
60722;SDS011;46574;52.818;6.516;2023-04-24T14:08:28;4.43;;;1.65;;
60722;SDS011;46574;52.818;6.516;2023-04-24T14:10:54;4.80;;;1.95;;
60722;SDS011;46574;52.818;6.516;2023-04-24T14:13:19;3.78;;;1.92;;
60722;SDS011;46574;52.818;6.516;2023-04-24T14:15:45;5.68;;;1.90;;
60722;SDS011;46574;52.818;6.516;2023-04-24T14:18:11;5.80;;;2.03;;
60722;SDS011;46574;52.818;6.516;2023-04-24T14:20:37;4.50;;;1.77;;
60722;SDS011;46574;52.818;6.516;2023-04-24T14:23:03;8.32;;;2.20;;
60722;SDS011;46574;52.818;6.516;2023-04-24T14:25:29;6.78;;;2.35;;
60722;SDS011;46574;52.818;6.516;2023-04-24T14:27:55;7.05;;;2.20;;
60722;SDS011;46574;52.818;6.516;2023-04-24T14:30:21;5.65;;;2.00;;
60722;SDS011;46574;52.818;6.516;2023-04-24T14:32:46;5.75;;;2.10;;
60722;SDS011;46574;52.818;6.516;2023-04-24T14:35:13;7.80;;;2.05;;
60722;SDS011;46574;52.818;6.516;2023-04-24T14:37:39;8.05;;;2.70;;
60722;SDS011;46574;52.818;6.516;2023-04-24T14:40:06;9.75;;;2.53;;
60722;SDS011;46574;52.818;6.516;2023-04-24T14:42:33;8.25;;;2.30;;
60722;SDS011;46574;52.818;6.516;2023-04-24T14:44:59;8.50;;;2.22;;
60722;SDS011;46574;52.818;6.516;2023-04-24T14:47:24;7.28;;;2.45;;
60722;SDS011;46574;52.818;6.516;2023-04-24T14:49:50;8.07;;;2.88;;
60722;SDS011;46574;52.818;6.516;2023-04-24T14:52:16;10.10;;;3.05;;
60722;SDS011;46574;52.818;6.516;2023-04-24T14:54:42;6.68;;;2.50;;
60722;SDS011;46574;52.818;6.516;2023-04-24T14:57:08;8.35;;;2.75;;
60722;SDS011;46574;52.818;6.516;2023-04-24T14:59:35;5.60;;;2.10;;
60722;SDS011;46574;52.818;6.516;2023-04-24T15:02:00;10.40;;;2.55;;
60722;SDS011;46574;52.818;6.516;2023-04-24T15:04:26;8.65;;;2.55;;
60722;SDS011;46574;52.818;6.516;2023-04-24T15:06:53;9.50;;;2.45;;
60722;SDS011;46574;52.818;6.516;2023-04-24T15:09:20;6.88;;;2.33;;